sensor_id;sensor_type;location;lat;lon;timestamp;P1;durP1;ratioP1;P2;durP2;ratioP2
11238;SDS011;5677;48.488;13.436;2022-11-03T00:00:55;2.73;;;2.27;;
11238;SDS011;5677;48.488;13.436;2022-11-03T00:03:23;2.40;;;2.20;;
11238;SDS011;5677;48.488;13.436;2022-11-03T00:05:50;2.80;;;1.93;;
11238;SDS011;5677;48.488;13.436;2022-11-03T00:08:33;2.07;;;1.90;;
11238;SDS011;5677;48.488;13.436;2022-11-03T00:11:02;2.77;;;2.30;;
11238;SDS011;5677;48.488;13.436;2022-11-03T00:13:34;2.27;;;2.10;;
11238;SDS011;5677;48.488;13.436;2022-11-03T00:16:03;3.23;;;2.47;;
11238;SDS011;5677;48.488;13.436;2022-11-03T00:18:30;2.43;;;2.23;;
11238;SDS011;5677;48.488;13.436;2022-11-03T00:20:58;2.10;;;1.97;;
11238;SDS011;5677;48.488;13.436;2022-11-03T00:23:27;2.20;;;2.00;;
11238;SDS011;5677;48.488;13.436;2022-11-03T00:25:55;3.50;;;2.20;;
11238;SDS011;5677;48.488;13.436;2022-11-03T00:28:29;1.90;;;1.80;;
11238;SDS011;5677;48.488;13.436;2022-11-03T00:30:57;2.47;;;2.27;;
11238;SDS011;5677;48.488;13.436;2022-11-03T00:33:28;2.33;;;2.10;;
11238;SDS011;5677;48.488;13.436;2022-11-03T00:35:56;2.10;;;1.90;;
11238;SDS011;5677;48.488;13.436;2022-11-03T00:38:24;2.80;;;2.07;;
11238;SDS011;5677;48.488;13.436;2022-11-03T00:40:53;2.57;;;2.37;;
11238;SDS011;5677;48.488;13.436;2022-11-03T00:43:21;2.30;;;2.00;;
11238;SDS011;5677;48.488;13.436;2022-11-03T00:45:48;2.20;;;2.00;;
11238;SDS011;5677;48.488;13.436;2022-11-03T00:48:15;2.20;;;2.00;;
11238;SDS011;5677;48.488;13.436;2022-11-03T00:51:00;3.17;;;2.20;;
11238;SDS011;5677;48.488;13.436;2022-11-03T00:53:29;2.00;;;1.90;;
11238;SDS011;5677;48.488;13.436;2022-11-03T00:55:57;2.30;;;2.10;;
11238;SDS011;5677;48.488;13.436;2022-11-03T00:58:24;3.03;;;2.43;;
11238;SDS011;5677;48.488;13.436;2022-11-03T01:00:56;1.93;;;1.83;;
11238;SDS011;5677;48.488;13.436;2022-11-03T01:03:24;2.63;;;2.27;;
11238;SDS011;5677;48.488;13.436;2022-11-03T01:05:51;2.13;;;1.93;;
11238;SDS011;5677;48.488;13.436;2022-11-03T01:08:36;2.73;;;2.00;;
11238;SDS011;5677;48.488;13.436;2022-11-03T01:11:04;1.90;;;1.80;;
11238;SDS011;5677;48.488;13.436;2022-11-03T01:13:49;2.13;;;1.93;;
11238;SDS011;5677;48.488;13.436;2022-11-03T01:16:15;2.23;;;2.00;;
11238;SDS011;5677;48.488;13.436;2022-11-03T01:18:42;2.17;;;1.97;;
11238;SDS011;5677;48.488;13.436;2022-11-03T01:21:09;2.03;;;1.93;;
11238;SDS011;5677;48.488;13.436;2022-11-03T01:23:37;2.40;;;2.13;;
11238;SDS011;5677;48.488;13.436;2022-11-03T01:26:04;2.40;;;1.83;;
11238;SDS011;5677;48.488;13.436;2022-11-03T01:28:32;2.00;;;1.90;;
11238;SDS011;5677;48.488;13.436;2022-11-03T01:31:01;1.90;;;1.80;;
11238;SDS011;5677;48.488;13.436;2022-11-03T01:33:29;1.90;;;1.80;;
11238;SDS011;5677;48.488;13.436;2022-11-03T01:35:55;2.47;;;1.97;;
11238;SDS011;5677;48.488;13.436;2022-11-03T01:38:22;2.47;;;2.10;;
11238;SDS011;5677;48.488;13.436;2022-11-03T01:40:50;2.60;;;1.70;;
11238;SDS011;5677;48.488;13.436;2022-11-03T01:43:18;2.00;;;1.80;;
11238;SDS011;5677;48.488;13.436;2022-11-03T01:45:47;2.23;;;1.93;;
11238;SDS011;5677;48.488;13.436;2022-11-03T01:48:17;1.90;;;1.70;;
11238;SDS011;5677;48.488;13.436;2022-11-03T01:50:46;1.97;;;1.83;;
11238;SDS011;5677;48.488;13.436;2022-11-03T01:53:15;1.90;;;1.80;;
11238;SDS011;5677;48.488;13.436;2022-11-03T01:55:43;1.63;;;1.53;;
11238;SDS011;5677;48.488;13.436;2022-11-03T01:58:14;1.87;;;1.77;;
11238;SDS011;5677;48.488;13.436;2022-11-03T02:00:45;1.90;;;1.70;;
11238;SDS011;5677;48.488;13.436;2022-11-03T02:03:14;2.20;;;1.90;;
11238;SDS011;5677;48.488;13.436;2022-11-03T02:05:43;1.90;;;1.60;;
11238;SDS011;5677;48.488;13.436;2022-11-03T02:08:12;1.70;;;1.60;;
11238;SDS011;5677;48.488;13.436;2022-11-03T02:10:42;2.00;;;1.90;;
11238;SDS011;5677;48.488;13.436;2022-11-03T02:13:16;1.67;;;1.50;;
11238;SDS011;5677;48.488;13.436;2022-11-03T02:15:44;2.80;;;1.63;;
11238;SDS011;5677;48.488;13.436;2022-11-03T02:18:12;1.83;;;1.57;;
11238;SDS011;5677;48.488;13.436;2022-11-03T02:20:40;2.00;;;1.70;;
11238;SDS011;5677;48.488;13.436;2022-11-03T02:23:23;2.33;;;1.70;;
11238;SDS011;5677;48.488;13.436;2022-11-03T02:25:59;2.00;;;1.80;;
11238;SDS011;5677;48.488;13.436;2022-11-03T02:28:27;2.23;;;1.60;;
11238;SDS011;5677;48.488;13.436;2022-11-03T02:30:58;1.50;;;1.40;;
11238;SDS011;5677;48.488;13.436;2022-11-03T02:33:43;1.60;;;1.50;;
11238;SDS011;5677;48.488;13.436;2022-11-03T02:36:15;1.80;;;1.70;;
11238;SDS011;5677;48.488;13.436;2022-11-03T02:38:46;1.70;;;1.60;;
11238;SDS011;5677;48.488;13.436;2022-11-03T02:41:20;1.83;;;1.67;;
11238;SDS011;5677;48.488;13.436;2022-11-03T02:43:48;1.70;;;1.60;;
11238;SDS011;5677;48.488;13.436;2022-11-03T02:46:16;1.60;;;1.50;;
11238;SDS011;5677;48.488;13.436;2022-11-03T02:48:43;1.70;;;1.60;;
11238;SDS011;5677;48.488;13.436;2022-11-03T02:51:10;1.50;;;1.40;;
11238;SDS011;5677;48.488;13.436;2022-11-03T02:53:38;1.70;;;1.60;;
11238;SDS011;5677;48.488;13.436;2022-11-03T02:56:11;2.10;;;1.60;;
11238;SDS011;5677;48.488;13.436;2022-11-03T02:58:46;1.80;;;1.70;;
11238;SDS011;5677;48.488;13.436;2022-11-03T03:01:18;2.73;;;1.70;;
11238;SDS011;5677;48.488;13.436;2022-11-03T03:03:53;1.53;;;1.43;;
11238;SDS011;5677;48.488;13.436;2022-11-03T03:06:22;1.83;;;1.63;;
11238;SDS011;5677;48.488;13.436;2022-11-03T03:08:53;1.70;;;1.60;;
11238;SDS011;5677;48.488;13.436;2022-11-03T03:11:23;1.60;;;1.50;;
11238;SDS011;5677;48.488;13.436;2022-11-03T03:14:04;1.80;;;1.37;;
11238;SDS011;5677;48.488;13.436;2022-11-03T03:16:34;1.60;;;1.50;;
11238;SDS011;5677;48.488;13.436;2022-11-03T03:19:16;1.50;;;1.40;;
11238;SDS011;5677;48.488;13.436;2022-11-03T03:21:48;1.70;;;1.60;;
11238;SDS011;5677;48.488;13.436;2022-11-03T03:24:18;1.73;;;1.63;;
11238;SDS011;5677;48.488;13.436;2022-11-03T03:26:50;1.43;;;1.33;;
11238;SDS011;5677;48.488;13.436;2022-11-03T03:29:21;1.50;;;1.40;;
11238;SDS011;5677;48.488;13.436;2022-11-03T03:31:52;1.30;;;1.20;;
11238;SDS011;5677;48.488;13.436;2022-11-03T03:34:23;1.67;;;1.57;;
11238;SDS011;5677;48.488;13.436;2022-11-03T03:36:52;1.60;;;1.50;;
11238;SDS011;5677;48.488;13.436;2022-11-03T03:39:24;2.03;;;1.57;;
11238;SDS011;5677;48.488;13.436;2022-11-03T03:41:53;2.10;;;1.40;;
11238;SDS011;5677;48.488;13.436;2022-11-03T03:44:23;1.37;;;1.27;;
11238;SDS011;5677;48.488;13.436;2022-11-03T03:46:54;1.70;;;1.60;;
11238;SDS011;5677;48.488;13.436;2022-11-03T03:49:24;1.40;;;1.30;;
11238;SDS011;5677;48.488;13.436;2022-11-03T03:51:51;1.50;;;1.40;;
11238;SDS011;5677;48.488;13.436;2022-11-03T03:54:18;1.40;;;1.30;;
11238;SDS011;5677;48.488;13.436;2022-11-03T03:56:46;1.40;;;1.30;;
11238;SDS011;5677;48.488;13.436;2022-11-03T03:59:17;1.40;;;1.30;;
11238;SDS011;5677;48.488;13.436;2022-11-03T04:01:45;1.43;;;1.30;;
11238;SDS011;5677;48.488;13.436;2022-11-03T04:04:12;1.50;;;1.30;;
11238;SDS011;5677;48.488;13.436;2022-11-03T04:06:39;1.40;;;1.30;;
11238;SDS011;5677;48.488;13.436;2022-11-03T04:09:07;1.47;;;1.20;;
11238;SDS011;5677;48.488;13.436;2022-11-03T04:11:34;1.47;;;1.37;;
11238;SDS011;5677;48.488;13.436;2022-11-03T04:14:18;1.33;;;1.23;;
11238;SDS011;5677;48.488;13.436;2022-11-03T04:17:00;1.60;;;1.50;;
11238;SDS011;5677;48.488;13.436;2022-11-03T04:19:44;1.40;;;1.30;;
11238;SDS011;5677;48.488;13.436;2022-11-03T04:22:29;1.67;;;1.37;;
11238;SDS011;5677;48.488;13.436;2022-11-03T04:24:58;1.40;;;1.30;;
11238;SDS011;5677;48.488;13.436;2022-11-03T04:27:26;1.97;;;1.70;;
11238;SDS011;5677;48.488;13.436;2022-11-03T04:29:56;1.40;;;1.30;;
11238;SDS011;5677;48.488;13.436;2022-11-03T04:32:27;3.00;;;1.40;;
11238;SDS011;5677;48.488;13.436;2022-11-03T04:34:54;1.50;;;1.40;;
11238;SDS011;5677;48.488;13.436;2022-11-03T04:37:21;1.77;;;1.40;;
11238;SDS011;5677;48.488;13.436;2022-11-03T04:39:47;1.40;;;1.30;;
11238;SDS011;5677;48.488;13.436;2022-11-03T04:42:15;1.43;;;1.20;;
11238;SDS011;5677;48.488;13.436;2022-11-03T04:44:44;1.03;;;1.00;;
11238;SDS011;5677;48.488;13.436;2022-11-03T04:47:12;1.43;;;1.33;;
11238;SDS011;5677;48.488;13.436;2022-11-03T04:49:41;1.50;;;1.30;;
11238;SDS011;5677;48.488;13.436;2022-11-03T04:52:09;1.83;;;1.30;;
11238;SDS011;5677;48.488;13.436;2022-11-03T04:54:40;1.50;;;1.40;;
11238;SDS011;5677;48.488;13.436;2022-11-03T04:57:08;1.60;;;1.50;;
11238;SDS011;5677;48.488;13.436;2022-11-03T04:59:37;1.40;;;1.30;;
11238;SDS011;5677;48.488;13.436;2022-11-03T05:02:07;1.60;;;1.17;;
11238;SDS011;5677;48.488;13.436;2022-11-03T05:04:36;1.13;;;1.07;;
11238;SDS011;5677;48.488;13.436;2022-11-03T05:07:07;1.47;;;1.23;;
11238;SDS011;5677;48.488;13.436;2022-11-03T05:09:44;1.40;;;1.30;;
11238;SDS011;5677;48.488;13.436;2022-11-03T05:12:11;1.53;;;1.43;;
11238;SDS011;5677;48.488;13.436;2022-11-03T05:14:38;1.30;;;1.23;;
11238;SDS011;5677;48.488;13.436;2022-11-03T05:17:05;1.73;;;1.63;;
11238;SDS011;5677;48.488;13.436;2022-11-03T05:19:40;1.50;;;1.20;;
11238;SDS011;5677;48.488;13.436;2022-11-03T05:22:11;1.23;;;1.13;;
11238;SDS011;5677;48.488;13.436;2022-11-03T05:24:41;1.20;;;1.10;;
11238;SDS011;5677;48.488;13.436;2022-11-03T05:27:08;1.23;;;1.10;;
11238;SDS011;5677;48.488;13.436;2022-11-03T05:29:37;1.13;;;1.03;;
11238;SDS011;5677;48.488;13.436;2022-11-03T05:32:07;1.30;;;1.20;;
11238;SDS011;5677;48.488;13.436;2022-11-03T05:34:39;1.40;;;1.30;;
11238;SDS011;5677;48.488;13.436;2022-11-03T05:39:56;1.00;;;1.00;;
11238;SDS011;5677;48.488;13.436;2022-11-03T05:42:27;1.27;;;1.17;;
11238;SDS011;5677;48.488;13.436;2022-11-03T05:44:57;0.90;;;0.90;;
11238;SDS011;5677;48.488;13.436;2022-11-03T05:47:26;1.30;;;1.20;;
11238;SDS011;5677;48.488;13.436;2022-11-03T05:49:59;1.50;;;1.17;;
11238;SDS011;5677;48.488;13.436;2022-11-03T05:52:33;1.17;;;1.17;;
11238;SDS011;5677;48.488;13.436;2022-11-03T05:55:00;1.30;;;1.20;;
11238;SDS011;5677;48.488;13.436;2022-11-03T05:57:28;1.30;;;1.10;;
11238;SDS011;5677;48.488;13.436;2022-11-03T05:59:57;1.03;;;1.03;;
11238;SDS011;5677;48.488;13.436;2022-11-03T06:02:28;1.43;;;1.30;;
11238;SDS011;5677;48.488;13.436;2022-11-03T06:05:04;1.27;;;1.17;;
11238;SDS011;5677;48.488;13.436;2022-11-03T06:07:41;2.23;;;1.33;;
11238;SDS011;5677;48.488;13.436;2022-11-03T06:10:16;1.60;;;1.40;;
11238;SDS011;5677;48.488;13.436;2022-11-03T06:12:50;1.40;;;1.30;;
11238;SDS011;5677;48.488;13.436;2022-11-03T06:15:21;1.30;;;1.20;;
11238;SDS011;5677;48.488;13.436;2022-11-03T06:17:52;1.30;;;1.20;;
11238;SDS011;5677;48.488;13.436;2022-11-03T06:20:20;2.00;;;1.20;;
11238;SDS011;5677;48.488;13.436;2022-11-03T06:22:48;1.30;;;1.20;;
11238;SDS011;5677;48.488;13.436;2022-11-03T06:25:21;1.40;;;1.30;;
11238;SDS011;5677;48.488;13.436;2022-11-03T06:27:51;1.10;;;1.00;;
11238;SDS011;5677;48.488;13.436;2022-11-03T06:30:20;1.73;;;1.30;;
11238;SDS011;5677;48.488;13.436;2022-11-03T06:32:50;1.47;;;1.27;;
11238;SDS011;5677;48.488;13.436;2022-11-03T06:35:18;2.23;;;1.20;;
11238;SDS011;5677;48.488;13.436;2022-11-03T06:37:45;6.13;;;1.77;;
11238;SDS011;5677;48.488;13.436;2022-11-03T06:43:00;12.73;;;2.17;;
11238;SDS011;5677;48.488;13.436;2022-11-03T06:45:49;6.33;;;2.00;;
11238;SDS011;5677;48.488;13.436;2022-11-03T06:48:24;8.70;;;2.00;;
11238;SDS011;5677;48.488;13.436;2022-11-03T06:50:52;5.43;;;2.07;;
11238;SDS011;5677;48.488;13.436;2022-11-03T06:53:22;4.97;;;2.53;;
11238;SDS011;5677;48.488;13.436;2022-11-03T06:55:53;4.97;;;2.30;;
11238;SDS011;5677;48.488;13.436;2022-11-03T06:58:24;5.60;;;2.60;;
11238;SDS011;5677;48.488;13.436;2022-11-03T07:00:56;8.73;;;2.80;;
11238;SDS011;5677;48.488;13.436;2022-11-03T07:03:26;7.90;;;2.47;;
11238;SDS011;5677;48.488;13.436;2022-11-03T07:05:57;5.70;;;3.10;;
11238;SDS011;5677;48.488;13.436;2022-11-03T07:08:27;6.07;;;3.07;;
11238;SDS011;5677;48.488;13.436;2022-11-03T07:11:15;6.47;;;4.10;;
11238;SDS011;5677;48.488;13.436;2022-11-03T07:13:43;5.30;;;3.60;;
11238;SDS011;5677;48.488;13.436;2022-11-03T07:16:12;6.03;;;3.23;;
11238;SDS011;5677;48.488;13.436;2022-11-03T07:18:41;7.10;;;3.77;;
11238;SDS011;5677;48.488;13.436;2022-11-03T07:21:24;10.27;;;5.23;;
11238;SDS011;5677;48.488;13.436;2022-11-03T07:23:59;9.87;;;6.10;;
11238;SDS011;5677;48.488;13.436;2022-11-03T07:26:30;7.43;;;4.93;;
11238;SDS011;5677;48.488;13.436;2022-11-03T07:29:02;6.70;;;3.53;;
11238;SDS011;5677;48.488;13.436;2022-11-03T07:31:29;6.50;;;4.40;;
11238;SDS011;5677;48.488;13.436;2022-11-03T07:33:57;6.13;;;3.77;;
11238;SDS011;5677;48.488;13.436;2022-11-03T07:36:25;5.53;;;3.97;;
11238;SDS011;5677;48.488;13.436;2022-11-03T07:38:56;4.47;;;3.70;;
11238;SDS011;5677;48.488;13.436;2022-11-03T07:41:27;4.43;;;3.60;;
11238;SDS011;5677;48.488;13.436;2022-11-03T07:43:58;5.93;;;3.77;;
11238;SDS011;5677;48.488;13.436;2022-11-03T07:46:26;7.73;;;3.83;;
11238;SDS011;5677;48.488;13.436;2022-11-03T07:48:54;6.07;;;3.77;;
11238;SDS011;5677;48.488;13.436;2022-11-03T07:51:23;4.70;;;3.40;;
11238;SDS011;5677;48.488;13.436;2022-11-03T07:53:56;5.27;;;3.60;;
11238;SDS011;5677;48.488;13.436;2022-11-03T07:56:28;5.17;;;3.40;;
11238;SDS011;5677;48.488;13.436;2022-11-03T07:59:04;6.83;;;3.40;;
11238;SDS011;5677;48.488;13.436;2022-11-03T08:01:39;6.53;;;3.53;;
11238;SDS011;5677;48.488;13.436;2022-11-03T08:04:09;5.37;;;3.07;;
11238;SDS011;5677;48.488;13.436;2022-11-03T08:06:38;5.40;;;3.40;;
11238;SDS011;5677;48.488;13.436;2022-11-03T08:09:05;7.93;;;3.10;;
11238;SDS011;5677;48.488;13.436;2022-11-03T08:11:33;5.37;;;3.20;;
11238;SDS011;5677;48.488;13.436;2022-11-03T08:13:59;9.40;;;3.60;;
11238;SDS011;5677;48.488;13.436;2022-11-03T08:16:27;7.93;;;3.20;;
11238;SDS011;5677;48.488;13.436;2022-11-03T08:18:53;6.00;;;3.17;;
11238;SDS011;5677;48.488;13.436;2022-11-03T08:21:20;5.17;;;2.60;;
11238;SDS011;5677;48.488;13.436;2022-11-03T08:23:47;7.17;;;2.80;;
11238;SDS011;5677;48.488;13.436;2022-11-03T08:26:14;6.30;;;3.13;;
11238;SDS011;5677;48.488;13.436;2022-11-03T08:28:42;9.63;;;3.27;;
11238;SDS011;5677;48.488;13.436;2022-11-03T08:31:09;4.47;;;2.80;;
11238;SDS011;5677;48.488;13.436;2022-11-03T08:33:36;7.93;;;2.93;;
11238;SDS011;5677;48.488;13.436;2022-11-03T08:36:03;4.93;;;2.87;;
11238;SDS011;5677;48.488;13.436;2022-11-03T08:38:30;8.67;;;3.43;;
11238;SDS011;5677;48.488;13.436;2022-11-03T08:40:57;5.73;;;2.87;;
11238;SDS011;5677;48.488;13.436;2022-11-03T08:43:24;7.57;;;3.50;;
11238;SDS011;5677;48.488;13.436;2022-11-03T08:45:52;7.63;;;3.30;;
11238;SDS011;5677;48.488;13.436;2022-11-03T08:48:19;7.50;;;3.03;;
11238;SDS011;5677;48.488;13.436;2022-11-03T08:50:46;9.60;;;3.10;;
11238;SDS011;5677;48.488;13.436;2022-11-03T08:53:14;8.50;;;2.77;;
11238;SDS011;5677;48.488;13.436;2022-11-03T08:55:41;14.17;;;3.23;;
11238;SDS011;5677;48.488;13.436;2022-11-03T08:58:08;8.00;;;2.90;;
11238;SDS011;5677;48.488;13.436;2022-11-03T09:00:35;10.67;;;3.10;;
11238;SDS011;5677;48.488;13.436;2022-11-03T09:03:03;12.40;;;3.57;;
11238;SDS011;5677;48.488;13.436;2022-11-03T09:05:30;10.33;;;3.40;;
11238;SDS011;5677;48.488;13.436;2022-11-03T09:07:56;13.03;;;3.23;;
11238;SDS011;5677;48.488;13.436;2022-11-03T09:10:23;11.60;;;3.10;;
11238;SDS011;5677;48.488;13.436;2022-11-03T09:12:51;8.00;;;3.00;;
11238;SDS011;5677;48.488;13.436;2022-11-03T09:15:17;12.50;;;3.30;;
11238;SDS011;5677;48.488;13.436;2022-11-03T09:17:44;8.57;;;3.00;;
11238;SDS011;5677;48.488;13.436;2022-11-03T09:20:12;4.27;;;2.60;;
11238;SDS011;5677;48.488;13.436;2022-11-03T09:22:39;5.83;;;2.63;;
11238;SDS011;5677;48.488;13.436;2022-11-03T09:25:07;7.77;;;2.47;;
11238;SDS011;5677;48.488;13.436;2022-11-03T09:27:34;5.63;;;2.47;;
11238;SDS011;5677;48.488;13.436;2022-11-03T09:30:01;5.10;;;2.43;;
11238;SDS011;5677;48.488;13.436;2022-11-03T09:32:29;5.73;;;2.30;;
11238;SDS011;5677;48.488;13.436;2022-11-03T09:34:56;3.70;;;2.60;;
11238;SDS011;5677;48.488;13.436;2022-11-03T09:37:24;7.57;;;2.50;;
11238;SDS011;5677;48.488;13.436;2022-11-03T09:39:51;7.63;;;2.67;;
11238;SDS011;5677;48.488;13.436;2022-11-03T09:42:18;6.40;;;2.27;;
11238;SDS011;5677;48.488;13.436;2022-11-03T09:44:45;5.30;;;2.30;;
11238;SDS011;5677;48.488;13.436;2022-11-03T09:47:16;6.67;;;2.07;;
11238;SDS011;5677;48.488;13.436;2022-11-03T09:49:47;5.57;;;2.03;;
11238;SDS011;5677;48.488;13.436;2022-11-03T09:52:16;6.27;;;2.23;;
11238;SDS011;5677;48.488;13.436;2022-11-03T09:54:47;5.33;;;2.40;;
11238;SDS011;5677;48.488;13.436;2022-11-03T09:57:16;5.13;;;2.07;;
11238;SDS011;5677;48.488;13.436;2022-11-03T09:59:44;5.80;;;2.20;;
11238;SDS011;5677;48.488;13.436;2022-11-03T10:02:15;7.43;;;2.10;;
11238;SDS011;5677;48.488;13.436;2022-11-03T10:04:47;4.23;;;2.27;;
11238;SDS011;5677;48.488;13.436;2022-11-03T10:07:13;5.93;;;1.93;;
11238;SDS011;5677;48.488;13.436;2022-11-03T10:09:41;5.00;;;2.00;;
11238;SDS011;5677;48.488;13.436;2022-11-03T10:12:15;5.80;;;2.40;;
11238;SDS011;5677;48.488;13.436;2022-11-03T10:14:42;5.20;;;2.20;;
11238;SDS011;5677;48.488;13.436;2022-11-03T10:17:12;5.57;;;1.90;;
11238;SDS011;5677;48.488;13.436;2022-11-03T10:19:41;4.20;;;2.30;;
11238;SDS011;5677;48.488;13.436;2022-11-03T10:22:08;3.60;;;1.93;;
11238;SDS011;5677;48.488;13.436;2022-11-03T10:24:35;3.73;;;2.00;;
11238;SDS011;5677;48.488;13.436;2022-11-03T10:27:02;3.60;;;2.03;;
11238;SDS011;5677;48.488;13.436;2022-11-03T10:29:46;6.33;;;2.20;;
11238;SDS011;5677;48.488;13.436;2022-11-03T10:32:31;4.40;;;2.07;;
11238;SDS011;5677;48.488;13.436;2022-11-03T10:34:59;4.40;;;1.70;;
11238;SDS011;5677;48.488;13.436;2022-11-03T10:37:27;7.23;;;1.90;;
11238;SDS011;5677;48.488;13.436;2022-11-03T10:39:54;4.10;;;2.17;;
11238;SDS011;5677;48.488;13.436;2022-11-03T10:42:22;4.67;;;2.03;;
11238;SDS011;5677;48.488;13.436;2022-11-03T10:44:52;4.70;;;1.93;;
11238;SDS011;5677;48.488;13.436;2022-11-03T10:47:24;5.63;;;1.97;;
11238;SDS011;5677;48.488;13.436;2022-11-03T10:49:57;5.57;;;2.07;;
11238;SDS011;5677;48.488;13.436;2022-11-03T10:52:25;3.60;;;1.90;;
11238;SDS011;5677;48.488;13.436;2022-11-03T10:54:54;5.20;;;2.07;;
11238;SDS011;5677;48.488;13.436;2022-11-03T10:57:23;9.13;;;1.83;;
11238;SDS011;5677;48.488;13.436;2022-11-03T10:59:53;3.47;;;2.03;;
11238;SDS011;5677;48.488;13.436;2022-11-03T11:02:21;2.17;;;1.60;;
11238;SDS011;5677;48.488;13.436;2022-11-03T11:04:50;4.83;;;2.20;;
11238;SDS011;5677;48.488;13.436;2022-11-03T11:07:23;2.70;;;1.60;;
11238;SDS011;5677;48.488;13.436;2022-11-03T11:09:52;4.23;;;2.03;;
11238;SDS011;5677;48.488;13.436;2022-11-03T11:12:20;2.80;;;1.80;;
11238;SDS011;5677;48.488;13.436;2022-11-03T11:14:54;4.33;;;2.00;;
11238;SDS011;5677;48.488;13.436;2022-11-03T11:20:16;2.77;;;1.60;;
11238;SDS011;5677;48.488;13.436;2022-11-03T11:26:12;3.30;;;1.53;;
11238;SDS011;5677;48.488;13.436;2022-11-03T11:28:42;3.07;;;1.70;;
11238;SDS011;5677;48.488;13.436;2022-11-03T11:39:59;16.67;;;2.70;;
11238;SDS011;5677;48.488;13.436;2022-11-03T11:42:26;18.50;;;2.70;;
11238;SDS011;5677;48.488;13.436;2022-11-03T11:45:00;6.90;;;2.23;;
11238;SDS011;5677;48.488;13.436;2022-11-03T11:47:39;13.27;;;2.73;;
11238;SDS011;5677;48.488;13.436;2022-11-03T11:50:21;7.10;;;2.30;;
11238;SDS011;5677;48.488;13.436;2022-11-03T11:52:54;8.90;;;2.60;;
11238;SDS011;5677;48.488;13.436;2022-11-03T11:55:29;7.67;;;2.43;;
11238;SDS011;5677;48.488;13.436;2022-11-03T11:58:05;9.63;;;2.17;;
11238;SDS011;5677;48.488;13.436;2022-11-03T12:00:49;11.10;;;2.30;;
11238;SDS011;5677;48.488;13.436;2022-11-03T12:03:31;13.63;;;2.33;;
11238;SDS011;5677;48.488;13.436;2022-11-03T12:06:00;8.07;;;2.37;;
11238;SDS011;5677;48.488;13.436;2022-11-03T12:08:28;8.53;;;2.20;;
11238;SDS011;5677;48.488;13.436;2022-11-03T12:10:57;11.00;;;2.23;;
11238;SDS011;5677;48.488;13.436;2022-11-03T12:13:42;12.20;;;2.77;;
11238;SDS011;5677;48.488;13.436;2022-11-03T12:22:06;6.23;;;2.33;;
11238;SDS011;5677;48.488;13.436;2022-11-03T12:24:37;14.50;;;2.10;;
11238;SDS011;5677;48.488;13.436;2022-11-03T12:27:16;8.90;;;2.10;;
11238;SDS011;5677;48.488;13.436;2022-11-03T12:30:03;8.97;;;2.20;;
11238;SDS011;5677;48.488;13.436;2022-11-03T12:32:33;8.90;;;2.17;;
11238;SDS011;5677;48.488;13.436;2022-11-03T12:35:00;5.10;;;2.27;;
11238;SDS011;5677;48.488;13.436;2022-11-03T12:37:29;6.53;;;2.30;;
11238;SDS011;5677;48.488;13.436;2022-11-03T12:39:56;6.03;;;2.50;;
11238;SDS011;5677;48.488;13.436;2022-11-03T12:42:22;11.33;;;2.20;;
11238;SDS011;5677;48.488;13.436;2022-11-03T12:44:50;8.17;;;2.17;;
11238;SDS011;5677;48.488;13.436;2022-11-03T12:47:17;6.50;;;2.27;;
11238;SDS011;5677;48.488;13.436;2022-11-03T12:49:44;4.57;;;1.90;;
11238;SDS011;5677;48.488;13.436;2022-11-03T12:52:11;6.40;;;1.90;;
11238;SDS011;5677;48.488;13.436;2022-11-03T12:54:39;6.33;;;2.23;;
11238;SDS011;5677;48.488;13.436;2022-11-03T12:57:06;5.33;;;2.10;;
11238;SDS011;5677;48.488;13.436;2022-11-03T12:59:33;3.27;;;1.70;;
11238;SDS011;5677;48.488;13.436;2022-11-03T13:02:00;10.23;;;2.00;;
11238;SDS011;5677;48.488;13.436;2022-11-03T13:04:27;5.93;;;2.13;;
11238;SDS011;5677;48.488;13.436;2022-11-03T13:06:54;6.97;;;2.10;;
11238;SDS011;5677;48.488;13.436;2022-11-03T13:09:20;4.00;;;1.90;;
11238;SDS011;5677;48.488;13.436;2022-11-03T13:11:48;6.60;;;2.17;;
11238;SDS011;5677;48.488;13.436;2022-11-03T13:14:33;7.87;;;2.40;;
11238;SDS011;5677;48.488;13.436;2022-11-03T13:17:00;5.37;;;2.37;;
11238;SDS011;5677;48.488;13.436;2022-11-03T13:19:27;8.63;;;3.10;;
11238;SDS011;5677;48.488;13.436;2022-11-03T13:21:54;6.10;;;2.67;;
11238;SDS011;5677;48.488;13.436;2022-11-03T13:24:21;8.10;;;2.53;;
11238;SDS011;5677;48.488;13.436;2022-11-03T13:26:49;6.67;;;2.43;;
11238;SDS011;5677;48.488;13.436;2022-11-03T13:29:16;6.13;;;2.40;;
11238;SDS011;5677;48.488;13.436;2022-11-03T13:31:42;9.47;;;2.27;;
11238;SDS011;5677;48.488;13.436;2022-11-03T13:34:09;7.17;;;1.93;;
11238;SDS011;5677;48.488;13.436;2022-11-03T13:36:36;6.43;;;2.37;;
11238;SDS011;5677;48.488;13.436;2022-11-03T13:39:03;6.03;;;2.17;;
11238;SDS011;5677;48.488;13.436;2022-11-03T13:41:30;6.60;;;2.30;;
11238;SDS011;5677;48.488;13.436;2022-11-03T13:43:58;5.23;;;2.00;;
11238;SDS011;5677;48.488;13.436;2022-11-03T13:46:25;7.47;;;2.30;;
11238;SDS011;5677;48.488;13.436;2022-11-03T13:48:52;5.40;;;2.30;;
11238;SDS011;5677;48.488;13.436;2022-11-03T13:51:19;6.20;;;2.40;;
11238;SDS011;5677;48.488;13.436;2022-11-03T13:53:46;3.37;;;1.87;;
11238;SDS011;5677;48.488;13.436;2022-11-03T13:56:13;5.43;;;1.97;;
11238;SDS011;5677;48.488;13.436;2022-11-03T13:58:39;8.63;;;2.83;;
11238;SDS011;5677;48.488;13.436;2022-11-03T14:01:08;6.17;;;2.30;;
11238;SDS011;5677;48.488;13.436;2022-11-03T14:03:34;5.27;;;2.00;;
11238;SDS011;5677;48.488;13.436;2022-11-03T14:06:01;7.70;;;2.17;;
11238;SDS011;5677;48.488;13.436;2022-11-03T14:08:28;4.43;;;2.20;;
11238;SDS011;5677;48.488;13.436;2022-11-03T14:10:57;7.57;;;2.20;;
11238;SDS011;5677;48.488;13.436;2022-11-03T14:13:44;4.40;;;2.10;;
11238;SDS011;5677;48.488;13.436;2022-11-03T14:16:11;4.97;;;2.27;;
11238;SDS011;5677;48.488;13.436;2022-11-03T14:18:38;4.47;;;1.90;;
11238;SDS011;5677;48.488;13.436;2022-11-03T14:21:05;5.73;;;1.83;;
11238;SDS011;5677;48.488;13.436;2022-11-03T14:23:31;5.50;;;2.30;;
11238;SDS011;5677;48.488;13.436;2022-11-03T14:25:58;4.63;;;1.97;;
11238;SDS011;5677;48.488;13.436;2022-11-03T14:28:25;6.53;;;2.00;;
11238;SDS011;5677;48.488;13.436;2022-11-03T14:30:52;4.33;;;1.87;;
11238;SDS011;5677;48.488;13.436;2022-11-03T14:33:21;6.17;;;2.10;;
11238;SDS011;5677;48.488;13.436;2022-11-03T14:35:48;3.90;;;2.03;;
11238;SDS011;5677;48.488;13.436;2022-11-03T14:38:15;6.33;;;2.00;;
11238;SDS011;5677;48.488;13.436;2022-11-03T14:40:41;5.03;;;2.03;;
11238;SDS011;5677;48.488;13.436;2022-11-03T14:43:26;6.10;;;2.63;;
11238;SDS011;5677;48.488;13.436;2022-11-03T14:45:53;9.03;;;2.33;;
11238;SDS011;5677;48.488;13.436;2022-11-03T14:48:19;4.30;;;2.30;;
11238;SDS011;5677;48.488;13.436;2022-11-03T14:50:47;4.83;;;2.50;;
11238;SDS011;5677;48.488;13.436;2022-11-03T14:53:14;3.73;;;2.03;;
11238;SDS011;5677;48.488;13.436;2022-11-03T14:55:41;4.13;;;2.30;;
11238;SDS011;5677;48.488;13.436;2022-11-03T14:58:08;4.60;;;2.17;;
11238;SDS011;5677;48.488;13.436;2022-11-03T15:00:35;4.33;;;2.07;;
11238;SDS011;5677;48.488;13.436;2022-11-03T15:03:01;4.13;;;1.90;;
11238;SDS011;5677;48.488;13.436;2022-11-03T15:05:30;5.53;;;2.00;;
11238;SDS011;5677;48.488;13.436;2022-11-03T15:08:09;6.03;;;2.07;;
11238;SDS011;5677;48.488;13.436;2022-11-03T15:10:35;4.53;;;2.00;;
11238;SDS011;5677;48.488;13.436;2022-11-03T15:13:02;2.60;;;1.90;;
11238;SDS011;5677;48.488;13.436;2022-11-03T15:15:29;3.43;;;1.90;;
11238;SDS011;5677;48.488;13.436;2022-11-03T15:17:56;5.13;;;1.90;;
11238;SDS011;5677;48.488;13.436;2022-11-03T15:20:23;4.63;;;1.77;;
11238;SDS011;5677;48.488;13.436;2022-11-03T15:22:51;5.17;;;2.03;;
11238;SDS011;5677;48.488;13.436;2022-11-03T15:25:18;3.20;;;1.77;;
11238;SDS011;5677;48.488;13.436;2022-11-03T15:27:45;3.37;;;2.00;;
11238;SDS011;5677;48.488;13.436;2022-11-03T15:30:11;5.77;;;2.20;;